sensor_id;sensor_type;location;lat;lon;timestamp;pressure;altitude;pressure_sealevel;temperature;humidity
69780;BME280;57052;55.602;38.096;2023-04-03T00:01:12;100115.97;;;10.77;58.26
69780;BME280;57052;55.602;38.096;2023-04-03T00:03:38;100119.19;;;10.74;58.55
69780;BME280;57052;55.602;38.096;2023-04-03T00:06:03;100108.91;;;10.71;58.56
69780;BME280;57052;55.602;38.096;2023-04-03T00:08:32;100113.25;;;10.72;58.52
69780;BME280;57052;55.602;38.096;2023-04-03T00:10:58;100111.09;;;10.69;58.43
69780;BME280;57052;55.602;38.096;2023-04-03T00:13:24;100110.28;;;10.68;58.40
69780;BME280;57052;55.602;38.096;2023-04-03T00:15:50;100106.75;;;10.68;58.41
69780;BME280;57052;55.602;38.096;2023-04-03T00:18:16;100104.59;;;10.65;58.30
69780;BME280;57052;55.602;38.096;2023-04-03T00:20:42;100110.81;;;10.65;58.47
69780;BME280;57052;55.602;38.096;2023-04-03T00:23:08;100111.34;;;10.62;58.42
69780;BME280;57052;55.602;38.096;2023-04-03T00:25:33;100118.41;;;10.63;58.54
69780;BME280;57052;55.602;38.096;2023-04-03T00:27:59;100114.88;;;10.63;58.53
69780;BME280;57052;55.602;38.096;2023-04-03T00:30:25;100115.97;;;10.62;58.52
69780;BME280;57052;55.602;38.096;2023-04-03T00:32:51;100118.94;;;10.60;58.46
69780;BME280;57052;55.602;38.096;2023-04-03T00:35:19;100111.09;;;10.59;58.50
69780;BME280;57052;55.602;38.096;2023-04-03T00:37:45;100113.81;;;10.59;58.62
69780;BME280;57052;55.602;38.096;2023-04-03T00:40:13;100115.16;;;10.56;58.65
69780;BME280;57052;55.602;38.096;2023-04-03T00:42:43;100114.06;;;10.57;58.51
69780;BME280;57052;55.602;38.096;2023-04-03T00:47:43;100118.69;;;10.57;58.74
69780;BME280;57052;55.602;38.096;2023-04-03T00:50:09;100120.03;;;10.54;58.66
69780;BME280;57052;55.602;38.096;2023-04-03T00:52:37;100122.19;;;10.52;58.54
69780;BME280;57052;55.602;38.096;2023-04-03T00:55:06;100106.22;;;10.51;58.53
69780;BME280;57052;55.602;38.096;2023-04-03T00:57:33;100102.16;;;10.48;58.43
69780;BME280;57052;55.602;38.096;2023-04-03T01:00:10;100113.28;;;10.47;58.44
69780;BME280;57052;55.602;38.096;2023-04-03T01:02:36;100109.47;;;10.48;58.80
69780;BME280;57052;55.602;38.096;2023-04-03T01:05:03;100116.25;;;10.45;58.67
69780;BME280;57052;55.602;38.096;2023-04-03T01:07:30;100107.59;;;10.43;58.48
69780;BME280;57052;55.602;38.096;2023-04-03T01:09:59;100107.88;;;10.42;58.58
69780;BME280;57052;55.602;38.096;2023-04-03T01:12:31;100113.28;;;10.42;58.82
69780;BME280;57052;55.602;38.096;2023-04-03T01:15:11;100110.28;;;10.38;58.68
69780;BME280;57052;55.602;38.096;2023-04-03T01:17:41;100104.06;;;10.38;58.56
69780;BME280;57052;55.602;38.096;2023-04-03T01:25:34;100102.19;;;10.33;58.98
69780;BME280;57052;55.602;38.096;2023-04-03T01:28:03;100099.22;;;10.29;58.90
69780;BME280;57052;55.602;38.096;2023-04-03T01:30:32;100103.81;;;10.29;59.24
69780;BME280;57052;55.602;38.096;2023-04-03T01:32:59;100105.69;;;10.28;58.85
69780;BME280;57052;55.602;38.096;2023-04-03T01:35:25;100103.00;;;10.23;58.83
69780;BME280;57052;55.602;38.096;2023-04-03T01:37:50;100111.66;;;10.25;58.82
69780;BME280;57052;55.602;38.096;2023-04-03T01:40:16;100101.94;;;10.24;59.02
69780;BME280;57052;55.602;38.096;2023-04-03T01:42:42;100102.19;;;10.23;59.11
69780;BME280;57052;55.602;38.096;2023-04-03T01:45:08;100102.19;;;10.23;59.04
69780;BME280;57052;55.602;38.096;2023-04-03T01:47:34;100089.75;;;10.12;58.58
69780;BME280;57052;55.602;38.096;2023-04-03T01:50:00;100097.59;;;10.18;58.96
69780;BME280;57052;55.602;38.096;2023-04-03T01:52:25;100093.25;;;10.17;58.70
69780;BME280;57052;55.602;38.096;2023-04-03T01:54:51;100097.88;;;10.17;59.02
69780;BME280;57052;55.602;38.096;2023-04-03T01:57:17;100099.22;;;10.14;59.25
69780;BME280;57052;55.602;38.096;2023-04-03T01:59:42;100102.16;;;10.13;58.71
69780;BME280;57052;55.602;38.096;2023-04-03T02:02:08;100103.78;;;10.09;59.04
69780;BME280;57052;55.602;38.096;2023-04-03T02:04:34;100104.84;;;10.08;58.89
69780;BME280;57052;55.602;38.096;2023-04-03T02:06:59;100102.94;;;10.03;59.05
69780;BME280;57052;55.602;38.096;2023-04-03T02:09:25;100099.16;;;9.94;59.19
69780;BME280;57052;55.602;38.096;2023-04-03T02:11:52;100105.09;;;9.96;59.04
69780;BME280;57052;55.602;38.096;2023-04-03T02:14:18;100103.75;;;9.94;59.13
69780;BME280;57052;55.602;38.096;2023-04-03T02:17:03;100101.56;;;9.86;59.09
69780;BME280;57052;55.602;38.096;2023-04-03T02:19:34;100102.91;;;9.83;59.37
69780;BME280;57052;55.602;38.096;2023-04-03T02:22:00;100111.31;;;9.82;59.84
69780;BME280;57052;55.602;38.096;2023-04-03T02:24:26;100107.25;;;9.79;59.72
69780;BME280;57052;55.602;38.096;2023-04-03T02:26:51;100113.19;;;9.76;59.41
69780;BME280;57052;55.602;38.096;2023-04-03T02:29:17;100114.53;;;9.74;59.69
69780;BME280;57052;55.602;38.096;2023-04-03T02:31:42;100114.50;;;9.68;60.08
69780;BME280;57052;55.602;38.096;2023-04-03T02:34:08;100120.72;;;9.64;59.49
69780;BME280;57052;55.602;38.096;2023-04-03T02:36:33;100110.69;;;9.59;59.80
69780;BME280;57052;55.602;38.096;2023-04-03T02:38:59;100119.59;;;9.60;60.14
69780;BME280;57052;55.602;38.096;2023-04-03T02:41:25;100114.72;;;9.57;59.91
69780;BME280;57052;55.602;38.096;2023-04-03T02:43:57;100119.06;;;9.53;60.04
69780;BME280;57052;55.602;38.096;2023-04-03T02:46:22;100112.28;;;9.50;59.94
69780;BME280;57052;55.602;38.096;2023-04-03T02:48:48;100115.25;;;9.49;59.88
69780;BME280;57052;55.602;38.096;2023-04-03T02:51:13;100113.38;;;9.44;60.00
69780;BME280;57052;55.602;38.096;2023-04-03T02:53:39;100119.28;;;9.41;60.34
69780;BME280;57052;55.602;38.096;2023-04-03T02:56:05;100106.25;;;9.28;59.96
69780;BME280;57052;55.602;38.096;2023-04-03T02:58:30;100121.94;;;9.31;60.12
69780;BME280;57052;55.602;38.096;2023-04-03T03:00:56;100125.47;;;9.32;60.68
69780;BME280;57052;55.602;38.096;2023-04-03T03:03:21;100121.94;;;9.26;60.31
69780;BME280;57052;55.602;38.096;2023-04-03T03:05:47;100125.97;;;9.24;60.23
69780;BME280;57052;55.602;38.096;2023-04-03T03:08:13;100130.56;;;9.23;61.10
69780;BME280;57052;55.602;38.096;2023-04-03T03:10:39;100126.47;;;9.16;60.23
69780;BME280;57052;55.602;38.096;2023-04-03T03:13:04;100130.22;;;9.15;60.56
69780;BME280;57052;55.602;38.096;2023-04-03T03:15:30;100112.59;;;9.02;61.38
69780;BME280;57052;55.602;38.096;2023-04-03T03:17:55;100134.00;;;9.09;60.65
69780;BME280;57052;55.602;38.096;2023-04-03T03:20:21;100129.66;;;9.08;61.14
69780;BME280;57052;55.602;38.096;2023-04-03T03:22:46;100138.56;;;9.08;60.99
69780;BME280;57052;55.602;38.096;2023-04-03T03:25:12;100134.22;;;9.07;61.67
69780;BME280;57052;55.602;38.096;2023-04-03T03:27:39;100138.03;;;9.06;61.34
69780;BME280;57052;55.602;38.096;2023-04-03T03:30:05;100141.53;;;9.07;61.21
69780;BME280;57052;55.602;38.096;2023-04-03T03:32:31;100143.44;;;9.06;61.39
69780;BME280;57052;55.602;38.096;2023-04-03T03:34:57;100142.59;;;9.06;61.40
69780;BME280;57052;55.602;38.096;2023-04-03T03:37:22;100130.13;;;8.99;61.70
69780;BME280;57052;55.602;38.096;2023-04-03T03:39:48;100140.97;;;9.04;62.16
69780;BME280;57052;55.602;38.096;2023-04-03T03:42:13;100142.06;;;9.03;61.68
69780;BME280;57052;55.602;38.096;2023-04-03T03:44:39;100144.47;;;9.05;61.95
69780;BME280;57052;55.602;38.096;2023-04-03T03:47:05;100142.88;;;9.04;62.13
69780;BME280;57052;55.602;38.096;2023-04-03T03:49:31;100149.88;;;9.05;61.96
69780;BME280;57052;55.602;38.096;2023-04-03T03:51:57;100137.16;;;8.95;62.51
69780;BME280;57052;55.602;38.096;2023-04-03T03:54:22;100147.72;;;9.07;61.66
69780;BME280;57052;55.602;38.096;2023-04-03T03:56:48;100148.31;;;9.09;61.82
69780;BME280;57052;55.602;38.096;2023-04-03T03:59:13;100142.63;;;9.11;61.73
69780;BME280;57052;55.602;38.096;2023-04-03T04:01:39;100142.94;;;9.14;62.43
69780;BME280;57052;55.602;38.096;2023-04-03T04:04:05;100144.31;;;9.17;61.73
69780;BME280;57052;55.602;38.096;2023-04-03T04:06:30;100149.44;;;9.18;62.52
69780;BME280;57052;55.602;38.096;2023-04-03T04:08:56;100144.03;;;9.18;62.17
69780;BME280;57052;55.602;38.096;2023-04-03T04:11:21;100148.09;;;9.21;62.53
69780;BME280;57052;55.602;38.096;2023-04-03T04:13:47;100151.34;;;9.23;61.81
69780;BME280;57052;55.602;38.096;2023-04-03T04:16:13;100139.19;;;9.25;62.17
69780;BME280;57052;55.602;38.096;2023-04-03T04:18:38;100145.72;;;9.29;61.92
69780;BME280;57052;55.602;38.096;2023-04-03T04:21:04;100144.38;;;9.32;61.93
69780;BME280;57052;55.602;38.096;2023-04-03T04:23:29;100143.84;;;9.40;61.86
69780;BME280;57052;55.602;38.096;2023-04-03T04:25:55;100142.81;;;9.46;61.83
69780;BME280;57052;55.602;38.096;2023-04-03T04:28:20;100146.06;;;9.48;61.89
69780;BME280;57052;55.602;38.096;2023-04-03T04:30:46;100140.66;;;9.53;61.55
69780;BME280;57052;55.602;38.096;2023-04-03T04:33:11;100142.03;;;9.60;61.34
69780;BME280;57052;55.602;38.096;2023-04-03T04:35:39;100127.19;;;9.58;61.39
69780;BME280;57052;55.602;38.096;2023-04-03T04:38:04;100149.91;;;9.72;61.67
69780;BME280;57052;55.602;38.096;2023-04-03T04:40:30;100150.75;;;9.78;61.69
69780;BME280;57052;55.602;38.096;2023-04-03T04:42:56;100148.56;;;9.80;61.33
69780;BME280;57052;55.602;38.096;2023-04-03T04:45:21;100144.28;;;9.84;61.79
69780;BME280;57052;55.602;38.096;2023-04-03T04:47:47;100153.75;;;9.86;61.25
69780;BME280;57052;55.602;38.096;2023-04-03T04:50:13;100152.13;;;9.90;61.76
69780;BME280;57052;55.602;38.096;2023-04-03T04:52:38;100139.41;;;9.86;61.58
69780;BME280;57052;55.602;38.096;2023-04-03T04:55:04;100145.66;;;9.96;61.66
69780;BME280;57052;55.602;38.096;2023-04-03T04:57:30;100150.53;;;9.99;61.64
69780;BME280;57052;55.602;38.096;2023-04-03T04:59:56;100154.31;;;10.03;61.52
69780;BME280;57052;55.602;38.096;2023-04-03T05:02:21;100147.03;;;10.04;61.77
69780;BME280;57052;55.602;38.096;2023-04-03T05:04:47;100153.00;;;10.11;61.68
69780;BME280;57052;55.602;38.096;2023-04-03T05:07:12;100155.44;;;10.12;61.55
69780;BME280;57052;55.602;38.096;2023-04-03T05:09:38;100153.84;;;10.16;61.30
69780;BME280;57052;55.602;38.096;2023-04-03T05:12:06;100150.31;;;10.16;61.21
69780;BME280;57052;55.602;38.096;2023-04-03T05:14:32;100154.69;;;10.22;61.46
69780;BME280;57052;55.602;38.096;2023-04-03T05:16:57;100160.34;;;10.25;61.57
69780;BME280;57052;55.602;38.096;2023-04-03T05:19:23;100164.16;;;10.29;61.37
69780;BME280;57052;55.602;38.096;2023-04-03T05:21:48;100161.16;;;10.31;61.30
69780;BME280;57052;55.602;38.096;2023-04-03T05:24:15;100165.47;;;10.37;61.27
69780;BME280;57052;55.602;38.096;2023-04-03T05:26:41;100163.06;;;10.41;61.04
69780;BME280;57052;55.602;38.096;2023-04-03T05:29:07;100166.59;;;10.46;60.94
69780;BME280;57052;55.602;38.096;2023-04-03T05:31:33;100164.13;;;10.50;61.34
69780;BME280;57052;55.602;38.096;2023-04-03T05:33:59;100153.88;;;10.47;61.12
69780;BME280;57052;55.602;38.096;2023-04-03T05:36:24;100166.31;;;10.58;60.98
69780;BME280;57052;55.602;38.096;2023-04-03T05:38:51;100165.25;;;10.64;61.11
69780;BME280;57052;55.602;38.096;2023-04-03T05:41:18;100161.41;;;10.70;60.85
69780;BME280;57052;55.602;38.096;2023-04-03T05:43:43;100166.28;;;10.78;60.67
69780;BME280;57052;55.602;38.096;2023-04-03T05:46:13;100121.66;;;10.60;60.51
69780;BME280;57052;55.602;38.096;2023-04-03T05:48:39;100162.22;;;10.90;60.83
69780;BME280;57052;55.602;38.096;2023-04-03T05:51:06;100167.09;;;10.99;60.61
69780;BME280;57052;55.602;38.096;2023-04-03T05:53:35;100164.09;;;11.05;60.32
69780;BME280;57052;55.602;38.096;2023-04-03T05:56:03;100156.22;;;11.14;60.09
69780;BME280;57052;55.602;38.096;2023-04-03T05:58:29;100158.63;;;11.20;60.22
69780;BME280;57052;55.602;38.096;2023-04-03T06:00:54;100157.00;;;11.29;60.37
69780;BME280;57052;55.602;38.096;2023-04-03T06:03:20;100155.34;;;11.38;59.73
69780;BME280;57052;55.602;38.096;2023-04-03T06:05:45;100160.19;;;11.46;59.49
69780;BME280;57052;55.602;38.096;2023-04-03T06:08:11;100160.41;;;11.55;59.59
69780;BME280;57052;55.602;38.096;2023-04-03T06:10:38;100166.06;;;11.64;59.22
69780;BME280;57052;55.602;38.096;2023-04-03T06:13:04;100170.66;;;11.73;58.90
69780;BME280;57052;55.602;38.096;2023-04-03T06:15:30;100162.78;;;11.82;58.70
69780;BME280;57052;55.602;38.096;2023-04-03T06:17:56;100142.16;;;11.81;58.45
69780;BME280;57052;55.602;38.096;2023-04-03T06:20:21;100161.59;;;11.98;58.13
69780;BME280;57052;55.602;38.096;2023-04-03T06:22:47;100166.19;;;12.02;58.26
69780;BME280;57052;55.602;38.096;2023-04-03T06:25:13;100162.06;;;12.10;57.76
69780;BME280;57052;55.602;38.096;2023-04-03T06:27:40;100163.91;;;12.19;57.85
69780;BME280;57052;55.602;38.096;2023-04-03T06:30:06;100162.50;;;12.27;57.59
69780;BME280;57052;55.602;38.096;2023-04-03T06:32:32;100165.38;;;12.41;57.13
69780;BME280;57052;55.602;38.096;2023-04-03T06:34:58;100168.00;;;12.51;57.11
69780;BME280;57052;55.602;38.096;2023-04-03T06:37:24;100165.22;;;12.61;56.54
69780;BME280;57052;55.602;38.096;2023-04-03T06:39:54;100169.47;;;12.72;56.54
69780;BME280;57052;55.602;38.096;2023-04-03T06:42:20;100160.44;;;12.81;56.69
69780;BME280;57052;55.602;38.096;2023-04-03T06:44:47;100171.19;;;12.92;56.64
69780;BME280;57052;55.602;38.096;2023-04-03T06:47:14;100152.41;;;12.95;56.46
69780;BME280;57052;55.602;38.096;2023-04-03T06:49:40;100170.50;;;13.10;56.35
69780;BME280;57052;55.602;38.096;2023-04-03T06:52:07;100159.84;;;13.13;55.96
69780;BME280;57052;55.602;38.096;2023-04-03T06:54:33;100168.72;;;13.24;56.19
69780;BME280;57052;55.602;38.096;2023-04-03T06:56:59;100167.59;;;13.30;55.90
69780;BME280;57052;55.602;38.096;2023-04-03T06:59:26;100169.44;;;13.34;55.64
69780;BME280;57052;55.602;38.096;2023-04-03T07:01:51;100162.59;;;13.37;55.67
69780;BME280;57052;55.602;38.096;2023-04-03T07:04:17;100159.88;;;13.37;55.67
69780;BME280;57052;55.602;38.096;2023-04-03T07:06:43;100165.31;;;13.37;55.20
69780;BME280;57052;55.602;38.096;2023-04-03T07:09:09;100167.69;;;13.43;54.81
69780;BME280;57052;55.602;38.096;2023-04-03T07:11:36;100176.59;;;13.49;55.28
69780;BME280;57052;55.602;38.096;2023-04-03T07:14:02;100167.09;;;13.46;55.05
69780;BME280;57052;55.602;38.096;2023-04-03T07:16:28;100178.97;;;13.56;55.27
69780;BME280;57052;55.602;38.096;2023-04-03T07:18:56;100165.34;;;13.56;54.74
69780;BME280;57052;55.602;38.096;2023-04-03T07:21:22;100178.31;;;13.64;54.96
69780;BME280;57052;55.602;38.096;2023-04-03T07:23:48;100174.72;;;13.68;54.68
69780;BME280;57052;55.602;38.096;2023-04-03T07:26:14;100178.50;;;13.72;54.96
69780;BME280;57052;55.602;38.096;2023-04-03T07:28:40;100173.31;;;13.71;54.61
69780;BME280;57052;55.602;38.096;2023-04-03T07:31:10;100165.72;;;13.73;54.19
69780;BME280;57052;55.602;38.096;2023-04-03T07:33:37;100179.47;;;13.81;54.64
69780;BME280;57052;55.602;38.096;2023-04-03T07:36:04;100184.03;;;13.86;54.43
69780;BME280;57052;55.602;38.096;2023-04-03T07:38:32;100179.69;;;13.85;54.25
69780;BME280;57052;55.602;38.096;2023-04-03T07:40:57;100189.69;;;13.89;54.32
69780;BME280;57052;55.602;38.096;2023-04-03T07:43:23;100191.31;;;13.90;54.20
69780;BME280;57052;55.602;38.096;2023-04-03T07:45:50;100182.88;;;13.92;54.43
69780;BME280;57052;55.602;38.096;2023-04-03T07:48:24;100190.97;;;13.97;53.40
69780;BME280;57052;55.602;38.096;2023-04-03T07:50:50;100189.78;;;14.03;54.15
69780;BME280;57052;55.602;38.096;2023-04-03T07:53:16;100186.47;;;14.06;53.87
69780;BME280;57052;55.602;38.096;2023-04-03T07:55:41;100196.78;;;14.09;54.09
69780;BME280;57052;55.602;38.096;2023-04-03T07:58:11;100196.19;;;14.12;53.99
69780;BME280;57052;55.602;38.096;2023-04-03T08:00:37;100185.00;;;14.13;53.51
69780;BME280;57052;55.602;38.096;2023-04-03T08:03:03;100191.25;;;14.14;53.80
69780;BME280;57052;55.602;38.096;2023-04-03T08:05:29;100196.31;;;14.21;53.68
69780;BME280;57052;55.602;38.096;2023-04-03T08:07:55;100179.56;;;14.13;53.62
69780;BME280;57052;55.602;38.096;2023-04-03T08:10:20;100191.44;;;14.23;53.30
69780;BME280;57052;55.602;38.096;2023-04-03T08:12:47;100199.78;;;14.26;53.60
69780;BME280;57052;55.602;38.096;2023-04-03T08:15:13;100193.78;;;14.29;53.64
69780;BME280;57052;55.602;38.096;2023-04-03T08:17:38;100192.69;;;14.30;53.77
69780;BME280;57052;55.602;38.096;2023-04-03T08:20:05;100198.34;;;14.34;53.53
69780;BME280;57052;55.602;38.096;2023-04-03T08:22:32;100180.97;;;14.30;53.78
69780;BME280;57052;55.602;38.096;2023-04-03T08:24:58;100195.56;;;14.39;53.37
69780;BME280;57052;55.602;38.096;2023-04-03T08:27:24;100203.66;;;14.44;53.46
69780;BME280;57052;55.602;38.096;2023-04-03T08:29:50;100206.88;;;14.46;53.41
69780;BME280;57052;55.602;38.096;2023-04-03T08:32:16;100209.84;;;14.49;53.22
69780;BME280;57052;55.602;38.096;2023-04-03T08:34:42;100209.25;;;14.52;53.03
69780;BME280;57052;55.602;38.096;2023-04-03T08:37:07;100207.84;;;14.55;53.21
69780;BME280;57052;55.602;38.096;2023-04-03T08:39:33;100204.22;;;14.59;53.06
69780;BME280;57052;55.602;38.096;2023-04-03T08:41:59;100212.59;;;14.63;52.98
69780;BME280;57052;55.602;38.096;2023-04-03T08:47:38;100219.19;;;14.62;51.79
69780;BME280;57052;55.602;38.096;2023-04-03T08:50:11;100215.25;;;14.68;52.55
69780;BME280;57052;55.602;38.096;2023-04-03T08:52:40;100219.59;;;14.69;52.62
69780;BME280;57052;55.602;38.096;2023-04-03T08:57:57;100220.63;;;14.73;52.58
69780;BME280;57052;55.602;38.096;2023-04-03T09:00:27;100226.28;;;14.76;52.50
69780;BME280;57052;55.602;38.096;2023-04-03T09:02:55;100227.31;;;14.81;52.22
69780;BME280;57052;55.602;38.096;2023-04-03T09:10:33;100232.22;;;14.97;52.07
69780;BME280;57052;55.602;38.096;2023-04-03T09:15:43;100232.56;;;15.09;51.96
69780;BME280;57052;55.602;38.096;2023-04-03T09:26:06;100230.22;;;15.49;50.41
69780;BME280;57052;55.602;38.096;2023-04-03T09:28:38;100230.53;;;15.61;50.52
69780;BME280;57052;55.602;38.096;2023-04-03T09:31:26;100238.53;;;15.71;49.56
69780;BME280;57052;55.602;38.096;2023-04-03T09:33:56;100230.34;;;15.84;50.11
69780;BME280;57052;55.602;38.096;2023-04-03T09:36:51;100234.06;;;15.88;48.21
69780;BME280;57052;55.602;38.096;2023-04-03T09:39:23;100231.94;;;15.99;48.84
69780;BME280;57052;55.602;38.096;2023-04-03T09:44:54;100226.06;;;16.19;47.79
69780;BME280;57052;55.602;38.096;2023-04-03T09:47:49;100228.44;;;16.34;47.28
69780;BME280;57052;55.602;38.096;2023-04-03T09:50:28;100233.81;;;16.53;48.85
69780;BME280;57052;55.602;38.096;2023-04-03T09:52:54;100226.47;;;16.62;48.35
69780;BME280;57052;55.602;38.096;2023-04-03T09:55:27;100221.59;;;16.73;47.48
69780;BME280;57052;55.602;38.096;2023-04-03T09:57:57;100222.50;;;16.90;47.54
69780;BME280;57052;55.602;38.096;2023-04-03T10:00:26;100224.66;;;17.02;47.09
69780;BME280;57052;55.602;38.096;2023-04-03T10:02:57;100219.75;;;17.12;46.25
69780;BME280;57052;55.602;38.096;2023-04-03T10:05:32;100223.66;;;17.20;44.63
69780;BME280;57052;55.602;38.096;2023-04-03T10:08:08;100221.09;;;17.23;44.33
69780;BME280;57052;55.602;38.096;2023-04-03T10:10:35;100221.16;;;17.32;46.62
69780;BME280;57052;55.602;38.096;2023-04-03T10:13:11;100223.88;;;17.32;43.69
69780;BME280;57052;55.602;38.096;2023-04-03T10:15:45;100222.44;;;17.35;44.44
69780;BME280;57052;55.602;38.096;2023-04-03T10:21:45;100220.97;;;17.28;42.29
69780;BME280;57052;55.602;38.096;2023-04-03T10:29:54;100226.53;;;17.15;41.52
69780;BME280;57052;55.602;38.096;2023-04-03T10:32:48;100217.16;;;17.07;42.64
69780;BME280;57052;55.602;38.096;2023-04-03T10:35:44;100228.41;;;17.06;41.43
69780;BME280;57052;55.602;38.096;2023-04-03T10:38:22;100219.19;;;17.02;43.01
69780;BME280;57052;55.602;38.096;2023-04-03T10:40:57;100229.19;;;17.06;43.96
69780;BME280;57052;55.602;38.096;2023-04-03T10:43:49;100229.66;;;17.00;42.87
69780;BME280;57052;55.602;38.096;2023-04-03T10:52:20;100230.59;;;16.95;43.75
69780;BME280;57052;55.602;38.096;2023-04-03T10:57:22;100229.47;;;16.96;45.24
69780;BME280;57052;55.602;38.096;2023-04-03T11:00:16;100233.75;;;16.89;43.59
69780;BME280;57052;55.602;38.096;2023-04-03T11:03:03;100229.41;;;16.88;43.89
69780;BME280;57052;55.602;38.096;2023-04-03T11:05:45;100226.97;;;16.86;43.88
69780;BME280;57052;55.602;38.096;2023-04-03T11:08:36;100222.75;;;16.80;43.68
69780;BME280;57052;55.602;38.096;2023-04-03T11:11:29;100230.28;;;16.75;43.88
69780;BME280;57052;55.602;38.096;2023-04-03T11:22:43;100219.91;;;16.63;45.01
69780;BME280;57052;55.602;38.096;2023-04-03T11:27:42;100218.47;;;16.65;44.97
69780;BME280;57052;55.602;38.096;2023-04-03T11:30:17;100211.88;;;16.66;45.09
69780;BME280;57052;55.602;38.096;2023-04-03T11:35:32;100217.72;;;16.74;45.91
69780;BME280;57052;55.602;38.096;2023-04-03T11:38:00;100212.75;;;16.76;45.90
69780;BME280;57052;55.602;38.096;2023-04-03T11:40:35;100216.81;;;16.78;45.01
69780;BME280;57052;55.602;38.096;2023-04-03T11:43:18;100224.56;;;16.85;45.87
69780;BME280;57052;55.602;38.096;2023-04-03T11:46:12;100217.09;;;16.77;44.43
69780;BME280;57052;55.602;38.096;2023-04-03T11:48:42;100218.59;;;16.83;45.16
69780;BME280;57052;55.602;38.096;2023-04-03T11:53:43;100216.34;;;16.85;45.67
69780;BME280;57052;55.602;38.096;2023-04-03T12:01:45;100226.03;;;16.68;45.10
69780;BME280;57052;55.602;38.096;2023-04-03T12:04:12;100225.25;;;16.68;45.72
69780;BME280;57052;55.602;38.096;2023-04-03T12:07:12;100220.03;;;16.58;44.34
69780;BME280;57052;55.602;38.096;2023-04-03T12:12:31;100216.34;;;16.49;44.89
69780;BME280;57052;55.602;38.096;2023-04-03T12:15:37;100219.16;;;16.35;45.13
69780;BME280;57052;55.602;38.096;2023-04-03T12:19:24;100226.41;;;16.40;45.22
69780;BME280;57052;55.602;38.096;2023-04-03T12:21:17;100230.94;;;16.44;46.04
69780;BME280;57052;55.602;38.096;2023-04-03T12:24:02;100226.53;;;16.35;45.31
69780;BME280;57052;55.602;38.096;2023-04-03T12:35:08;100224.84;;;16.25;45.68
69780;BME280;57052;55.602;38.096;2023-04-03T12:46:19;100234.06;;;16.16;46.64
69780;BME280;57052;55.602;38.096;2023-04-03T12:48:49;100238.41;;;16.17;46.65
69780;BME280;57052;55.602;38.096;2023-04-03T12:51:40;100238.22;;;16.13;46.56
69780;BME280;57052;55.602;38.096;2023-04-03T12:56:49;100231.44;;;16.11;46.93
69780;BME280;57052;55.602;38.096;2023-04-03T12:59:24;100231.56;;;16.06;46.02
69780;BME280;57052;55.602;38.096;2023-04-03T13:01:59;100223.97;;;16.02;46.41
69780;BME280;57052;55.602;38.096;2023-04-03T13:04:26;100233.16;;;16.07;46.72
69780;BME280;57052;55.602;38.096;2023-04-03T13:06:52;100224.78;;;16.03;46.91
69780;BME280;57052;55.602;38.096;2023-04-03T13:09:27;100229.72;;;16.01;46.20
69780;BME280;57052;55.602;38.096;2023-04-03T13:12:01;100215.28;;;15.87;46.28
69780;BME280;57052;55.602;38.096;2023-04-03T13:14:28;100228.94;;;16.00;47.07
69780;BME280;57052;55.602;38.096;2023-04-03T13:19:25;100235.50;;;15.99;46.55
69780;BME280;57052;55.602;38.096;2023-04-03T13:22:07;100221.13;;;15.94;46.44
69780;BME280;57052;55.602;38.096;2023-04-03T13:24:37;100229.53;;;15.97;46.60
69780;BME280;57052;55.602;38.096;2023-04-03T13:27:05;100225.69;;;15.98;46.75
69780;BME280;57052;55.602;38.096;2023-04-03T13:29:34;100217.41;;;15.90;46.05
69780;BME280;57052;55.602;38.096;2023-04-03T13:32:01;100227.63;;;15.98;46.30
69780;BME280;57052;55.602;38.096;2023-04-03T13:34:36;100230.84;;;16.00;46.05
69780;BME280;57052;55.602;38.096;2023-04-03T13:37:03;100231.34;;;16.02;46.56
69780;BME280;57052;55.602;38.096;2023-04-03T13:39:34;100235.19;;;16.01;45.76
69780;BME280;57052;55.602;38.096;2023-04-03T13:42:28;100239.16;;;15.95;45.22
69780;BME280;57052;55.602;38.096;2023-04-03T13:45:24;100236.69;;;15.93;45.08
69780;BME280;57052;55.602;38.096;2023-04-03T13:47:52;100233.69;;;15.95;46.22
69780;BME280;57052;55.602;38.096;2023-04-03T13:50:22;100235.81;;;15.98;46.41
69780;BME280;57052;55.602;38.096;2023-04-03T13:53:00;100222.56;;;15.91;45.05
69780;BME280;57052;55.602;38.096;2023-04-03T13:55:31;100236.91;;;15.97;45.39
69780;BME280;57052;55.602;38.096;2023-04-03T13:58:03;100232.88;;;15.94;44.72
69780;BME280;57052;55.602;38.096;2023-04-03T14:00:53;100232.06;;;15.94;44.86
69780;BME280;57052;55.602;38.096;2023-04-03T14:05:50;100230.94;;;15.95;45.56
69780;BME280;57052;55.602;38.096;2023-04-03T14:08:16;100229.31;;;15.94;45.49
69780;BME280;57052;55.602;38.096;2023-04-03T14:10:42;100225.59;;;15.90;45.50
69780;BME280;57052;55.602;38.096;2023-04-03T14:13:12;100220.13;;;15.90;44.90
69780;BME280;57052;55.602;38.096;2023-04-03T14:15:38;100220.44;;;15.88;45.54
69780;BME280;57052;55.602;38.096;2023-04-03T14:18:04;100219.81;;;15.91;45.40
69780;BME280;57052;55.602;38.096;2023-04-03T14:20:30;100216.91;;;15.88;45.43
69780;BME280;57052;55.602;38.096;2023-04-03T14:22:55;100224.47;;;15.91;45.32
69780;BME280;57052;55.602;38.096;2023-04-03T14:25:22;100219.53;;;15.93;45.16
69780;BME280;57052;55.602;38.096;2023-04-03T14:27:51;100222.56;;;15.91;45.13
69780;BME280;57052;55.602;38.096;2023-04-03T14:30:24;100217.91;;;15.92;44.27
69780;BME280;57052;55.602;38.096;2023-04-03T14:32:50;100224.69;;;15.94;45.09